Time;durP1;ratioP1;P1;durP2;ratioP2;P2;SDS_P1;SDS_P2;PMS_P1;PMS_P2;Temp;Humidity;BMP_temperature;BMP_pressure;BME280_temperature;BME280_humidity;BME280_pressure;Samples;Min_cycle;Max_cycle;Signal;HPM_P1;HPM_P2
2022/01/13 00:01:20;;;;;;;48.28;12.95;;;5.00;99.90;;;;;;4993788;28;20073;-69
2022/01/13 00:03:47;;;;;;;29.48;10.45;;;;;;;;;;4997513;28;20401;-69
2022/01/13 00:06:13;;;;;;;28.60;11.00;;;5.10;99.90;;;;;;4997179;28;20054;-69
2022/01/13 00:08:39;;;;;;;25.45;11.00;;;;;;;;;;4997114;28;20048;-69
2022/01/13 00:11:05;;;;;;;41.15;11.65;;;;;;;;;;5013703;28;20097;-69
2022/01/13 00:13:44;;;;;;;31.38;11.32;;;;;;;;;;4997081;28;20485;-70
2022/01/13 00:19:07;;;;;;;25.00;10.20;;;;;;;;;;5013155;28;20509;-70
2022/01/13 00:21:38;;;;;;;29.17;11.70;;;5.00;99.90;;;;;;4997370;28;20048;-70
2022/01/13 00:24:05;;;;;;;26.73;12.60;;;;;;;;;;4996802;28;20038;-69
2022/01/13 00:26:34;;;;;;;27.17;11.23;;;;;;;;;;5028590;23;20450;-73
2022/01/13 00:29:02;;;;;;;28.92;11.73;;;;;;;;;;5059658;28;20040;-72
2022/01/13 00:31:32;;;;;;;25.15;11.45;;;;;;;;;;5060065;28;20089;-73
2022/01/13 00:33:59;;;;;;;27.77;12.05;;;;;;;;;;5076690;28;20039;-72
2022/01/13 00:36:27;;;;;;;33.03;12.63;;;5.00;99.90;;;;;;5059768;28;20040;-72
2022/01/13 00:38:54;;;;;;;32.15;12.40;;;;;;;;;;5059416;28;20040;-73
2022/01/13 00:41:20;;;;;;;31.15;14.45;;;;;;;;;;5059528;28;20047;-73
2022/01/13 00:43:47;;;;;;;29.02;11.55;;;5.20;99.90;;;;;;5059444;28;20084;-74
2022/01/13 00:46:20;;;;;;;32.38;13.52;;;;;;;;;;5059712;28;20048;-74
2022/01/13 00:48:47;;;;;;;31.10;12.75;;;;;;;;;;5059693;28;20040;-74
2022/01/13 00:51:13;;;;;;;34.72;13.20;;;;;;;;;;5059406;28;20094;-74
2022/01/13 00:53:38;;;;;;;34.85;12.32;;;5.20;99.90;;;;;;5059168;28;20104;-73
2022/01/13 00:56:04;;;;;;;26.33;13.25;;;;;;;;;;5059322;28;20123;-73
2022/01/13 00:58:34;;;;;;;36.63;15.00;;;;;;;;;;5076211;28;20059;-73
2022/01/13 01:01:02;;;;;;;33.72;13.82;;;5.20;99.90;;;;;;5059086;28;20299;-73
2022/01/13 01:03:28;;;;;;;33.25;13.30;;;;;;;;;;5059311;28;20036;-74
2022/01/13 01:05:55;;;;;;;40.35;13.68;;;;;;;;;;5059264;28;20046;-74
2022/01/13 01:08:22;;;;;;;38.58;14.18;;;5.10;99.90;;;;;;5058962;28;20044;-74
2022/01/13 01:10:50;;;;;;;43.67;14.73;;;;;;;;;;5059094;28;20036;-73
2022/01/13 01:13:20;;;;;;;38.22;13.93;;;;;;;;;;5058077;28;20040;-73
2022/01/13 01:15:50;;;;;;;46.85;14.73;;;;;;;;;;5058978;28;20048;-74
2022/01/13 01:23:29;;;;;;;38.70;15.35;;;;;;;;;;5075615;28;20048;-74
2022/01/13 01:26:04;;;;;;;40.75;16.42;;;5.10;99.90;;;;;;5059050;28;20403;-74
2022/01/13 01:28:41;;;;;;;36.28;15.40;;;;;;;;;;5058615;28;20076;-74
2022/01/13 01:31:06;;;;;;;41.30;15.25;;;5.40;99.90;;;;;;5058509;28;20511;-74
2022/01/13 01:33:35;;;;;;;40.85;15.75;;;5.20;99.90;;;;;;5058880;28;20051;-74
2022/01/13 01:36:01;;;;;;;42.65;16.83;;;;;;;;;;5058517;28;20515;-74
2022/01/13 01:38:27;;;;;;;36.25;15.30;;;;;;;;;;5058452;28;20040;-74
2022/01/13 01:40:53;;;;;;;40.47;13.98;;;;;;;;;;5058311;28;20055;-73
2022/01/13 01:43:19;;;;;;;40.67;15.57;;;;;;;;;;5058731;28;20067;-73
2022/01/13 01:45:49;;;;;;;39.17;15.32;;;;;;;;;;5058581;28;20040;-74
2022/01/13 01:48:19;;;;;;;42.03;15.00;;;;;;;;;;5058260;28;20051;-73
2022/01/13 01:50:54;;;;;;;49.03;17.85;;;;;;;;;;5058053;28;20040;-74
2022/01/13 01:53:20;;;;;;;43.70;15.60;;;5.40;99.90;;;;;;5058579;28;20130;-73
2022/01/13 01:55:46;;;;;;;44.47;15.63;;;5.30;99.90;;;;;;5058349;28;20043;-73
2022/01/13 01:58:12;;;;;;;36.90;14.38;;;;;;;;;;5058349;28;20032;-73
2022/01/13 02:00:38;;;;;;;52.38;14.57;;;;;;;;;;5057823;28;20123;-74
2022/01/13 02:03:05;;;;;;;41.22;16.58;;;;;;;;;;5074752;28;20128;-73
2022/01/13 02:05:31;;;;;;;35.97;12.93;;;;;;;;;;5058170;28;20100;-74
2022/01/13 02:07:58;;;;;;;40.22;14.05;;;;;;;;;;5057879;28;20044;-73
2022/01/13 02:10:24;;;;;;;34.30;13.27;;;;;;;;;;5057639;28;20499;-74
2022/01/13 02:12:50;;;;;;;41.80;13.52;;;5.30;99.90;;;;;;5057856;28;20043;-73
2022/01/13 02:17:48;;;;;;;33.08;12.60;;;5.00;99.90;;;;;;5074584;28;20048;-73
2022/01/13 02:20:18;;;;;;;46.20;13.55;;;4.90;99.90;;;;;;5057372;28;20042;-74
2022/01/13 02:22:44;;;;;;;42.70;13.65;;;5.20;99.90;;;;;;5057744;28;20036;-74
2022/01/13 02:25:14;;;;;;;39.42;13.43;;;5.10;99.90;;;;;;5057180;28;20039;-74
2022/01/13 02:27:40;;;;;;;36.58;14.05;;;;;;;;;;5057390;28;20093;-73
2022/01/13 02:30:07;;;;;;;43.60;13.85;;;;;;;;;;5057147;28;20078;-74
2022/01/13 02:32:33;;;;;;;36.85;11.82;;;;;;;;;;5057822;28;20079;-74
2022/01/13 02:34:59;;;;;;;49.28;14.30;;;;;;;;;;5057246;28;20525;-73
2022/01/13 02:37:25;;;;;;;47.95;14.45;;;;;;;;;;5057683;28;20040;-74
2022/01/13 02:39:51;;;;;;;53.75;14.88;;;;;;;;;;5057337;28;20491;-74
2022/01/13 02:42:17;;;;;;;53.60;13.32;;;;;;;;;;5074087;28;20047;-74
2022/01/13 02:45:05;;;;;;;61.53;15.70;;;5.30;99.90;;;;;;5057254;28;20399;-73
2022/01/13 02:50:11;;;;;;;73.13;15.23;;;;;;;;;;5073607;28;20044;-73
2022/01/13 02:52:37;;;;;;;72.35;17.27;;;;;;;;;;5057231;28;20097;-74
2022/01/13 02:55:04;;;;;;;70.05;15.32;;;5.90;99.90;;;;;;5057005;28;20036;-74
2022/01/13 02:57:30;;;;;;;60.35;14.23;;;5.30;99.90;;;;;;5073922;28;20067;-74
2022/01/13 02:59:55;;;;;;;68.63;15.57;;;5.30;99.90;;;;;;5056643;28;20149;-72
2022/01/13 03:02:28;;;;;;;67.43;15.27;;;;;;;;;;5073780;28;20479;-72
2022/01/13 03:04:54;;;;;;;65.78;12.32;;;5.30;99.90;;;;;;5073769;28;20039;-73
2022/01/13 03:07:20;;;;;;;55.95;14.88;;;;;;;;;;5056928;28;20072;-73
2022/01/13 03:09:47;;;;;;;69.40;15.60;;;;;;;;;;5056539;28;20048;-73
2022/01/13 03:12:12;;;;;;;66.93;16.25;;;5.30;99.90;;;;;;5056915;28;20040;-72
2022/01/13 03:14:38;;;;;;;74.38;17.05;;;5.20;99.90;;;;;;5057389;28;20173;-73
2022/01/13 03:17:05;;;;;;;62.22;15.38;;;5.30;99.90;;;;;;5074093;28;20050;-72
2022/01/13 03:19:31;;;;;;;71.70;15.90;;;5.40;99.90;;;;;;5056800;28;20506;-73
2022/01/13 03:21:57;;;;;;;63.78;14.90;;;;;;;;;;5056792;28;20039;-72
2022/01/13 03:24:23;;;;;;;80.22;17.23;;;5.40;99.90;;;;;;5056883;28;20475;-73
2022/01/13 03:26:50;;;;;;;71.75;16.52;;;;;;;;;;5056628;28;20126;-72
2022/01/13 03:29:18;;;;;;;64.00;14.85;;;;;;;;;;5056633;28;20036;-72
2022/01/13 03:31:45;;;;;;;56.85;13.93;;;;;;;;;;5056747;28;20131;-72
2022/01/13 03:34:13;;;;;;;68.05;15.10;;;;;;;;;;5056573;28;20036;-72
2022/01/13 03:36:39;;;;;;;56.15;13.80;;;;;;;;;;5057906;28;20048;-73
2022/01/13 03:39:06;;;;;;;62.70;14.50;;;;;;;;;;5060596;28;20036;-72
2022/01/13 03:41:33;;;;;;;46.40;13.60;;;5.30;99.90;;;;;;5060646;28;20040;-75
2022/01/13 03:44:05;;;;;;;92.18;18.88;;;;;;;;;;5060675;28;20035;-72
2022/01/13 03:46:31;;;;;;;63.10;15.18;;;;;;;;;;5060921;28;20072;-72
2022/01/13 03:48:57;;;;;;;84.63;16.10;;;5.40;99.90;;;;;;5060413;28;20047;-72
2022/01/13 03:51:23;;;;;;;76.13;17.58;;;;;;;;;;5060481;28;20541;-73
2022/01/13 03:54:14;;;;;;;63.67;15.32;;;5.50;99.90;;;;;;5060559;28;20040;-72
2022/01/13 03:57:00;;;;;;;88.82;17.20;;;;;;;;;;5060169;28;20051;-73
2022/01/13 03:59:35;;;;;;;78.35;16.23;;;;;;;;;;5060313;28;20388;-72
2022/01/13 04:02:12;;;;;;;85.75;17.77;;;5.40;99.90;;;;;;5060400;28;20059;-73
2022/01/13 04:04:42;;;;;;;57.63;14.77;;;;;;;;;;5060251;28;20036;-72
2022/01/13 04:07:18;;;;;;;127.68;23.08;;;;;;;;;;5060249;28;20036;-73
2022/01/13 04:09:44;;;;;;;77.22;16.08;;;;;;;;;;5059924;28;20040;-72
2022/01/13 04:12:12;;;;;;;88.65;17.95;;;5.50;99.90;;;;;;5060240;28;20032;-73
2022/01/13 04:14:50;;;;;;;71.38;15.88;;;;;;;;;;5060006;28;20042;-73
2022/01/13 04:17:17;;;;;;;69.00;17.20;;;;;;;;;;5060005;28;20036;-73
2022/01/13 04:19:45;;;;;;;86.32;17.23;;;5.30;99.90;;;;;;5059673;28;20036;-73
2022/01/13 04:22:12;;;;;;;75.82;17.15;;;;;;;;;;5059984;28;20288;-73
2022/01/13 04:24:38;;;;;;;92.00;16.65;;;5.50;99.90;;;;;;5059962;28;20044;-73
2022/01/13 04:27:08;;;;;;;81.00;16.27;;;;;;;;;;5059538;28;20040;-72
2022/01/13 04:29:37;;;;;;;79.97;17.10;;;;;;;;;;5059547;28;20040;-72
2022/01/13 04:32:04;;;;;;;79.55;17.52;;;;;;;;;;5059844;28;20165;-73
2022/01/13 04:34:30;;;;;;;84.00;18.05;;;;;;;;;;5060012;28;20036;-72
2022/01/13 04:36:58;;;;;;;91.60;18.23;;;5.50;99.90;;;;;;5059565;28;20533;-73
2022/01/13 04:39:24;;;;;;;72.75;16.00;;;;;;;;;;5059367;28;20560;-73
2022/01/13 04:41:52;;;;;;;94.32;18.95;;;;;;;;;;5059610;28;20040;-73
2022/01/13 04:44:19;;;;;;;83.88;18.35;;;;;;;;;;5059816;28;20040;-72
2022/01/13 04:46:45;;;;;;;95.07;19.85;;;5.40;99.90;;;;;;5059563;28;20071;-73
2022/01/13 04:49:11;;;;;;;101.80;21.05;;;;;;;;;;5058965;28;20119;-73
2022/01/13 04:51:39;;;;;;;79.55;18.92;;;5.50;99.90;;;;;;5059498;28;20032;-73
2022/01/13 04:54:05;;;;;;;91.20;19.08;;;;;;;;;;5059321;28;20075;-73
2022/01/13 04:59:03;;;;;;;86.65;21.20;;;;;;;;;;5075918;28;20131;-73
2022/01/13 05:01:29;;;;;;;88.07;19.27;;;;;;;;;;5059256;28;20123;-73
2022/01/13 05:03:55;;;;;;;91.45;22.55;;;;;;;;;;5059435;28;20036;-73
2022/01/13 05:06:21;;;;;;;84.55;20.23;;;;;;;;;;5059509;28;20040;-73
2022/01/13 05:08:47;;;;;;;105.72;20.77;;;;;;;;;;5059266;28;20043;-73
2022/01/13 05:11:14;;;;;;;124.82;22.20;;;;;;;;;;5058848;28;20621;-73
2022/01/13 05:13:40;;;;;;;99.63;21.80;;;;;;;;;;5059311;28;20399;-72
2022/01/13 05:16:08;;;;;;;88.85;19.33;;;;;;;;;;5058896;28;20043;-73
2022/01/13 05:21:44;;;;;;;125.18;23.92;;;;;;;;;;5059796;28;20499;-72
2022/01/13 05:24:10;;;;;;;100.05;22.33;;;5.80;99.90;;;;;;5058876;28;20094;-72
2022/01/13 05:26:36;;;;;;;97.60;22.42;;;5.70;99.90;;;;;;5058798;28;20040;-72
2022/01/13 05:29:02;;;;;;;108.30;22.92;;;5.70;99.90;;;;;;5075465;28;20047;-72
2022/01/13 05:31:27;;;;;;;92.55;23.48;;;5.70;99.90;;;;;;5058498;28;20036;-73
2022/01/13 05:33:53;;;;;;;91.22;21.05;;;;;;;;;;5058824;28;20453;-73
2022/01/13 05:36:19;;;;;;;97.88;21.13;;;;;;;;;;5058451;28;20085;-73
2022/01/13 05:38:45;;;;;;;75.88;19.42;;;;;;;;;;5058518;28;20040;-73
2022/01/13 05:41:11;;;;;;;89.45;21.17;;;;;;;;;;5075130;28;20036;-73
2022/01/13 05:43:38;;;;;;;115.35;24.40;;;;;;;;;;5058632;28;20093;-73
2022/01/13 05:46:04;;;;;;;126.18;24.85;;;;;;;;;;5058148;28;20519;-72
2022/01/13 05:48:31;;;;;;;89.22;23.27;;;;;;;;;;5058278;28;20127;-72
2022/01/13 05:50:57;;;;;;;127.88;28.70;;;;;;;;;;5058533;28;20048;-72
2022/01/13 05:53:23;;;;;;;111.55;25.17;;;5.80;99.90;;;;;;5058143;28;20511;-73
2022/01/13 05:55:48;;;;;;;110.20;25.08;;;5.80;99.90;;;;;;5058269;28;20078;-73
2022/01/13 05:58:15;;;;;;;96.32;22.83;;;;;;;;;;5058136;28;20044;-72
2022/01/13 06:00:41;;;;;;;105.20;23.45;;;;;;;;;;5057394;28;20096;-72
2022/01/13 06:03:07;;;;;;;94.28;20.83;;;;;;;;;;5057905;28;20048;-72
2022/01/13 06:05:35;;;;;;;111.47;25.15;;;;;;;;;;5058101;28;20040;-73
2022/01/13 06:08:01;;;;;;;107.55;26.38;;;;;;;;;;5058159;28;20130;-73
2022/01/13 06:10:27;;;;;;;98.32;24.75;;;;;;;;;;5057588;28;20100;-73
2022/01/13 06:12:54;;;;;;;116.00;30.33;;;;;;;;;;5058023;28;20079;-73
2022/01/13 06:15:21;;;;;;;116.93;26.05;;;;;;;;;;5057527;28;20564;-73
2022/01/13 06:17:48;;;;;;;136.93;31.00;;;;;;;;;;5057937;28;20487;-73
2022/01/13 06:20:14;;;;;;;109.18;26.58;;;6.10;99.90;;;;;;5057632;28;20039;-73
2022/01/13 06:22:42;;;;;;;123.30;29.52;;;6.20;99.90;;;;;;5057940;28;20122;-73
2022/01/13 06:25:09;;;;;;;120.43;29.67;;;6.10;99.90;;;;;;5057891;28;20086;-73
2022/01/13 06:27:35;;;;;;;103.65;28.80;;;;;;;;;;5084588;23;20047;-79
2022/01/13 06:30:01;;;;;;;131.73;30.80;;;;;;;;;;5077370;28;20399;-79
2022/01/13 06:32:27;;;;;;;120.78;29.88;;;;;;;;;;5078849;28;20072;-79
2022/01/13 06:34:53;;;;;;;127.80;32.28;;;;;;;;;;5086681;28;20024;-77
2022/01/13 06:37:20;;;;;;;119.53;27.58;;;;;;;;;;5084112;28;20414;-79
2022/01/13 06:39:46;;;;;;;125.97;30.17;;;;;;;;;;5078672;28;20051;-79
2022/01/13 06:42:12;;;;;;;128.23;29.48;;;;;;;;;;5077412;28;20128;-79
2022/01/13 06:44:39;;;;;;;117.85;27.73;;;;;;;;;;5078352;28;20062;-79
2022/01/13 06:47:05;;;;;;;115.60;28.35;;;;;;;;;;5078337;28;20047;-78
2022/01/13 06:49:32;;;;;;;97.82;26.77;;;;;;;;;;5078428;28;20044;-79
2022/01/13 06:51:58;;;;;;;103.07;29.00;;;6.00;99.90;;;;;;5084520;28;20044;-77
2022/01/13 06:54:24;;;;;;;130.23;31.52;;;;;;;;;;5090178;28;20051;-78
2022/01/13 06:56:51;;;;;;;112.45;28.77;;;6.20;99.90;;;;;;5090289;28;20043;-77
2022/01/13 06:59:18;;;;;;;139.88;33.25;;;;;;;;;;5088670;28;20054;-78
2022/01/13 07:01:44;;;;;;;146.20;34.72;;;;;;;;;;5078927;28;20041;-79
2022/01/13 07:04:12;;;;;;;95.45;26.30;;;;;;;;;;5070235;28;20089;-79
2022/01/13 07:06:38;;;;;;;121.50;30.20;;;;;;;;;;5066303;28;20047;-78
2022/01/13 07:09:06;;;;;;;112.60;29.90;;;;;;;;;;5066055;28;20050;-80
2022/01/13 07:11:32;;;;;;;125.32;30.27;;;;;;;;;;5074331;28;20599;-79
2022/01/13 07:13:58;;;;;;;121.10;31.63;;;;;;;;;;5074743;28;20087;-79
2022/01/13 07:16:24;;;;;;;94.63;29.33;;;;;;;;;;5091174;28;20066;-79
2022/01/13 07:18:50;;;;;;;108.78;29.30;;;;;;;;;;5088082;28;20103;-79
2022/01/13 07:21:17;;;;;;;94.72;27.95;;;;;;;;;;5073113;28;20036;-78
2022/01/13 07:23:43;;;;;;;92.97;28.45;;;;;;;;;;5084220;28;20044;-78
2022/01/13 07:26:09;;;;;;;105.47;30.70;;;;;;;;;;5081829;28;20027;-78
2022/01/13 07:28:35;;;;;;;105.47;30.23;;;;;;;;;;5078203;28;20127;-78
2022/01/13 07:31:01;;;;;;;103.65;29.05;;;;;;;;;;5062083;28;20036;-78
2022/01/13 07:33:28;;;;;;;102.38;31.02;;;;;;;;;;5079225;28;20152;-78
2022/01/13 07:35:54;;;;;;;104.40;30.98;;;;;;;;;;5081058;28;20070;-78
2022/01/13 07:38:20;;;;;;;123.25;28.45;;;;;;;;;;5074869;28;20421;-76
2022/01/13 07:40:47;;;;;;;109.45;30.65;;;;;;;;;;5076689;28;20037;-76
2022/01/13 07:43:16;;;;;;;112.97;28.55;;;;;;;;;;5065749;28;20052;-77
2022/01/13 07:45:42;;;;;;;116.53;30.05;;;;;;;;;;5065733;28;20033;-77
2022/01/13 07:48:08;;;;;;;112.63;29.90;;;6.00;99.90;;;;;;5068422;28;20468;-78
2022/01/13 07:50:35;;;;;;;117.28;31.70;;;;;;;;;;5084040;28;20036;-76
2022/01/13 07:53:00;;;;;;;97.88;26.63;;;;;;;;;;5066516;28;20031;-78
2022/01/13 07:55:27;;;;;;;97.43;26.60;;;;;;;;;;5080946;28;20124;-76
2022/01/13 07:57:53;;;;;;;101.88;26.88;;;;;;;;;;5089471;28;20039;-76
2022/01/13 08:00:18;;;;;;;101.15;27.60;;;6.20;99.90;;;;;;5069203;28;20031;-76
2022/01/13 08:02:44;;;;;;;115.10;27.30;;;;;;;;;;5072807;28;20407;-76
2022/01/13 08:05:11;;;;;;;119.80;29.00;;;;;;;;;;5070240;28;20675;-76
2022/01/13 08:07:37;;;;;;;93.93;24.42;;;6.00;99.90;;;;;;5089156;28;20058;-76
2022/01/13 08:10:03;;;;;;;96.95;25.77;;;6.10;99.90;;;;;;5072540;28;20032;-77
2022/01/13 08:12:29;;;;;;;89.78;24.25;;;6.10;99.90;;;;;;5106800;28;20035;-77
2022/01/13 08:14:55;;;;;;;90.68;24.45;;;;;;;;;;5090020;28;20479;-77
2022/01/13 08:20:06;;;;;;;88.68;25.40;;;;;;;;;;5089907;28;20083;-77
2022/01/13 08:22:32;;;;;;;94.63;26.67;;;6.00;99.90;;;;;;5091017;28;20631;-77
2022/01/13 08:24:58;;;;;;;108.32;28.10;;;;;;;;;;5077137;28;20076;-77
2022/01/13 08:27:24;;;;;;;134.23;30.70;;;;;;;;;;5093480;28;20043;-77
2022/01/13 08:29:50;;;;;;;100.22;25.90;;;6.10;99.90;;;;;;5076433;28;20126;-77
2022/01/13 08:32:16;;;;;;;99.13;25.52;;;;;;;;;;5076647;28;20032;-76
2022/01/13 08:34:41;;;;;;;93.30;25.40;;;;;;;;;;5093504;28;20036;-77
2022/01/13 08:37:07;;;;;;;96.55;26.27;;;;;;;;;;5093405;28;20028;-77
2022/01/13 08:39:39;;;;;;;89.38;26.17;;;;;;;;;;5093153;28;20056;-77
2022/01/13 08:42:05;;;;;;;98.88;27.02;;;6.00;99.90;;;;;;5093451;28;20044;-77
2022/01/13 08:44:31;;;;;;;94.22;26.50;;;;;;;;;;5073178;28;20047;-77
2022/01/13 08:46:57;;;;;;;104.50;27.27;;;;;;;;;;5056611;28;20036;-77
2022/01/13 08:49:23;;;;;;;90.90;26.83;;;;;;;;;;5072651;28;20496;-77
2022/01/13 08:51:51;;;;;;;96.30;27.90;;;;;;;;;;5072826;28;20083;-76
2022/01/13 08:54:19;;;;;;;99.35;28.92;;;;;;;;;;5075741;28;20036;-77
2022/01/13 08:56:45;;;;;;;112.22;26.83;;;;;;;;;;5076072;28;20039;-77
2022/01/13 08:59:11;;;;;;;98.97;27.80;;;;;;;;;;5092743;28;20028;-76
2022/01/13 09:01:37;;;;;;;93.63;28.65;;;;;;;;;;5075741;28;20440;-77
2022/01/13 09:04:03;;;;;;;98.38;28.77;;;;;;;;;;5093078;28;20083;-77
2022/01/13 09:06:29;;;;;;;117.10;34.03;;;;;;;;;;5092887;28;20039;-77
2022/01/13 09:08:55;;;;;;;102.43;29.75;;;;;;;;;;5075728;28;20067;-76
2022/01/13 09:11:21;;;;;;;98.07;30.80;;;;;;;;;;5085935;28;20048;-77
2022/01/13 09:13:47;;;;;;;131.85;34.40;;;6.20;99.90;;;;;;5069494;28;20063;-76
2022/01/13 09:16:15;;;;;;;113.95;33.53;;;;;;;;;;5089374;28;20063;-76
2022/01/13 09:21:20;;;;;;;100.35;31.17;;;;;;;;;;5089626;28;20130;-76
2022/01/13 09:23:46;;;;;;;99.68;27.00;;;;;;;;;;5089434;28;20123;-76
2022/01/13 09:26:12;;;;;;;101.20;32.47;;;;;;;;;;5072500;28;20162;-76
2022/01/13 09:28:38;;;;;;;118.00;33.63;;;;;;;;;;5072558;28;20047;-76
2022/01/13 09:31:04;;;;;;;105.80;30.13;;;;;;;;;;5073752;28;20496;-76
2022/01/13 09:33:30;;;;;;;99.25;30.25;;;;;;;;;;5090300;28;20040;-76
2022/01/13 09:35:56;;;;;;;110.10;32.92;;;6.50;99.90;;;;;;5091522;28;20040;-76
2022/01/13 09:38:22;;;;;;;122.78;36.25;;;;;;;;;;5091830;28;20043;-76
2022/01/13 09:40:52;;;;;;;102.43;34.60;;;;;;;;;;5076897;28;20127;-76
2022/01/13 09:43:21;;;;;;;104.03;32.17;;;6.60;99.90;;;;;;5055491;28;20036;-77
2022/01/13 09:45:47;;;;;;;115.57;34.13;;;;;;;;;;5055340;28;20045;-76
2022/01/13 09:48:13;;;;;;;109.43;33.95;;;6.60;99.90;;;;;;5055025;28;20040;-76
2022/01/13 09:50:40;;;;;;;113.47;32.85;;;6.40;99.90;;;;;;5054845;28;20127;-77
2022/01/13 09:53:07;;;;;;;121.25;35.17;;;6.50;99.90;;;;;;5055252;28;20130;-76
2022/01/13 09:55:33;;;;;;;123.18;34.97;;;;;;;;;;5054899;28;20044;-77
2022/01/13 09:58:03;;;;;;;117.05;37.30;;;;;;;;;;5054759;28;20037;-76
2022/01/13 10:00:29;;;;;;;113.65;35.35;;;;;;;;;;5061870;28;20035;-76
2022/01/13 10:02:55;;;;;;;103.25;32.85;;;6.60;99.90;;;;;;5074786;28;20123;-77
2022/01/13 10:05:23;;;;;;;112.20;35.33;;;6.60;99.90;;;;;;5075218;28;20133;-77
2022/01/13 10:07:51;;;;;;;114.35;38.00;;;6.70;99.90;;;;;;5074650;28;20093;-76
2022/01/13 10:10:19;;;;;;;114.43;35.45;;;6.40;99.90;;;;;;5074386;28;20036;-76
2022/01/13 10:12:46;;;;;;;108.53;36.50;;;;;;;;;;5074655;28;20100;-76
2022/01/13 10:17:57;;;;;;;85.57;34.42;;;6.70;99.90;;;;;;5091474;28;20036;-77
2022/01/13 10:20:23;;;;;;;102.60;34.85;;;6.80;99.90;;;;;;5074468;28;20032;-76
2022/01/13 10:22:50;;;;;;;94.85;33.30;;;6.90;99.90;;;;;;5074508;28;20036;-76
2022/01/13 10:25:36;;;;;;;95.82;34.72;;;7.00;99.90;;;;;;5074563;28;20047;-76
2022/01/13 10:28:17;;;;;;;105.25;36.28;;;;;;;;;;5074247;28;20119;-76
2022/01/13 10:30:45;;;;;;;92.65;32.85;;;6.90;99.90;;;;;;5074109;28;20221;-76
2022/01/13 10:33:15;;;;;;;83.07;31.80;;;;;;;;;;5074292;28;20063;-76
2022/01/13 10:35:41;;;;;;;92.82;34.53;;;;;;;;;;5074065;28;20503;-76
2022/01/13 10:38:08;;;;;;;83.30;32.45;;;;;;;;;;5074048;28;20039;-75
2022/01/13 10:40:40;;;;;;;88.97;32.13;;;;;;;;;;5073757;28;20544;-76
2022/01/13 10:43:07;;;;;;;95.00;34.47;;;6.90;99.90;;;;;;5074412;28;20392;-76
2022/01/13 10:45:42;;;;;;;88.18;32.88;;;6.80;99.90;;;;;;5073883;28;20487;-76
2022/01/13 10:48:24;;;;;;;82.82;31.88;;;7.10;99.90;;;;;;5073900;28;20518;-76
2022/01/13 10:50:58;;;;;;;82.55;30.83;;;;;;;;;;5073739;28;20075;-76
2022/01/13 10:53:25;;;;;;;85.05;31.80;;;;;;;;;;5073862;28;20123;-76
2022/01/13 10:55:56;;;;;;;81.70;32.40;;;;;;;;;;5073892;28;20597;-76
2022/01/13 10:58:34;;;;;;;82.28;30.67;;;6.90;99.90;;;;;;5073895;28;20040;-76
2022/01/13 11:01:02;;;;;;;69.90;29.27;;;7.00;99.90;;;;;;5073824;28;20105;-77
2022/01/13 11:03:31;;;;;;;86.88;32.08;;;6.90;99.90;;;;;;5074146;28;20391;-75
2022/01/13 11:06:03;;;;;;;70.32;30.50;;;7.10;99.90;;;;;;5073843;28;20044;-75
2022/01/13 11:08:45;;;;;;;81.40;31.48;;;;;;;;;;5073632;28;20044;-76
2022/01/13 11:11:18;;;;;;;71.95;29.63;;;7.00;99.90;;;;;;5073274;28;20047;-76
2022/01/13 11:13:53;;;;;;;66.72;28.42;;;;;;;;;;5073969;28;20044;-76
2022/01/13 11:16:20;;;;;;;79.07;30.98;;;;;;;;;;5073585;28;20040;-77
2022/01/13 11:18:46;;;;;;;76.45;31.80;;;;;;;;;;5073531;28;20047;-77
2022/01/13 11:21:12;;;;;;;76.93;29.70;;;;;;;;;;5073334;28;20039;-77
2022/01/13 11:23:38;;;;;;;79.93;31.95;;;;;;;;;;5066961;28;20024;-77
2022/01/13 11:26:06;;;;;;;75.32;32.28;;;7.30;99.90;;;;;;5066233;28;20410;-77
2022/01/13 11:28:35;;;;;;;76.20;30.08;;;7.00;99.90;;;;;;5090196;28;20217;-77
2022/01/13 11:31:01;;;;;;;73.68;30.08;;;;;;;;;;5090112;28;20094;-76
2022/01/13 11:33:27;;;;;;;74.80;30.23;;;;;;;;;;5073782;28;20399;-77
2022/01/13 11:35:57;;;;;;;65.25;27.80;;;7.00;99.90;;;;;;5073229;28;20040;-77
2022/01/13 11:38:27;;;;;;;72.80;30.23;;;7.10;99.90;;;;;;5086417;28;20083;-77
2022/01/13 11:41:05;;;;;;;65.80;29.63;;;7.10;99.90;;;;;;5079390;28;20036;-77
2022/01/13 11:43:31;;;;;;;68.53;29.83;;;;;;;;;;5074281;28;20036;-78
2022/01/13 11:46:00;;;;;;;66.35;28.05;;;;;;;;;;5086661;28;20046;-77
2022/01/13 11:48:29;;;;;;;77.07;29.67;;;;;;;;;;5069803;28;20052;-77
2022/01/13 11:51:18;;;;;;;72.10;30.27;;;7.30;99.90;;;;;;5069667;28;20079;-77
2022/01/13 11:53:55;;;;;;;62.30;27.83;;;;;;;;;;5060719;28;20101;-77
2022/01/13 11:56:22;;;;;;;70.50;29.13;;;7.20;99.90;;;;;;5053586;28;20037;-77
2022/01/13 11:58:48;;;;;;;71.57;28.80;;;;;;;;;;5081758;28;20101;-77
2022/01/13 12:01:22;;;;;;;64.43;26.60;;;;;;;;;;5068890;28;20040;-77
2022/01/13 12:03:53;;;;;;;64.63;29.02;;;7.10;99.90;;;;;;5085167;28;20043;-77
2022/01/13 12:06:46;;;;;;;75.20;29.50;;;7.60;99.90;;;;;;5070137;28;20347;-77
2022/01/13 12:09:32;;;;;;;68.37;27.23;;;;;;;;;;5073999;28;20051;-76
2022/01/13 12:11:59;;;;;;;68.10;28.02;;;7.50;99.90;;;;;;5062079;28;20130;-76
2022/01/13 12:14:25;;;;;;;70.75;28.67;;;;;;;;;;5069198;28;20052;-78
2022/01/13 12:16:56;;;;;;;65.00;26.58;;;;;;;;;;5070266;28;20051;-77
2022/01/13 12:19:36;;;;;;;60.00;28.73;;;;;;;;;;5066773;28;20480;-76
2022/01/13 12:22:10;;;;;;;62.40;26.23;;;;;;;;;;5067262;28;20098;-77
2022/01/13 12:24:48;;;;;;;71.97;28.75;;;7.70;99.90;;;;;;5069083;28;20028;-77
2022/01/13 12:27:16;;;;;;;61.67;26.83;;;7.80;99.90;;;;;;5070837;28;20036;-76
2022/01/13 12:30:02;;;;;;;62.90;26.90;;;7.80;99.90;;;;;;5085774;28;20044;-77
2022/01/13 12:32:38;;;;;;;57.42;25.10;;;7.80;99.90;;;;;;5067191;28;20349;-74
2022/01/13 12:35:06;;;;;;;60.25;25.77;;;8.00;99.90;;;;;;5075321;28;20047;-75
2022/01/13 12:37:32;;;;;;;56.17;25.55;;;;;;;;;;5093503;28;20118;-75
2022/01/13 12:40:11;;;;;;;49.22;23.88;;;7.90;99.90;;;;;;5070507;28;20032;-76
2022/01/13 12:42:54;;;;;;;54.03;24.23;;;7.80;99.90;;;;;;5059108;28;20071;-75
2022/01/13 12:45:29;;;;;;;49.47;24.27;;;7.70;99.90;;;;;;5056384;28;20041;-75
2022/01/13 12:48:08;;;;;;;54.53;22.85;;;8.00;99.90;;;;;;5056272;28;20040;-75
2022/01/13 12:50:39;;;;;;;49.17;22.90;;;7.80;99.90;;;;;;5055956;28;20119;-76
2022/01/13 12:53:12;;;;;;;53.17;23.30;;;8.10;99.90;;;;;;5056304;28;20495;-76
2022/01/13 12:55:41;;;;;;;48.50;20.77;;;7.80;99.90;;;;;;5056145;28;20048;-76
2022/01/13 12:58:08;;;;;;;45.83;21.38;;;7.90;99.90;;;;;;5056175;28;20510;-76
2022/01/13 13:00:34;;;;;;;46.53;22.02;;;7.90;99.90;;;;;;5064156;28;20457;-76
2022/01/13 13:03:06;;;;;;;58.30;23.42;;;8.00;99.90;;;;;;5076382;28;20407;-76
2022/01/13 13:05:41;;;;;;;41.90;20.48;;;8.00;99.90;;;;;;5076349;28;20061;-76
2022/01/13 13:08:10;;;;;;;50.28;22.35;;;8.00;99.90;;;;;;5075834;28;20040;-76
2022/01/13 13:10:36;;;;;;;48.38;22.15;;;8.00;99.90;;;;;;5092618;28;20078;-76
2022/01/13 13:13:02;;;;;;;62.95;23.33;;;8.00;99.90;;;;;;5075977;28;20040;-77
2022/01/13 13:17:55;;;;;;;36.45;20.77;;;;;;;;;;5092646;28;20491;-76
2022/01/13 13:20:30;;;;;;;53.17;21.05;;;8.40;99.90;;;;;;5075682;28;20044;-76
2022/01/13 13:22:58;;;;;;;50.47;21.67;;;8.10;99.90;;;;;;5075768;28;20078;-76
2022/01/13 13:25:39;;;;;;;40.88;20.55;;;8.10;99.90;;;;;;5075930;28;20407;-76
2022/01/13 13:28:27;;;;;;;44.70;21.23;;;8.10;99.90;;;;;;5075685;28;20571;-76
2022/01/13 13:31:20;;;;;;;50.28;20.23;;;8.20;99.90;;;;;;5075250;28;20046;-76
2022/01/13 13:33:59;;;;;;;38.90;19.63;;;8.20;99.90;;;;;;5079075;28;20048;-76
2022/01/13 13:36:41;;;;;;;41.30;20.40;;;8.30;99.90;;;;;;5075430;28;20089;-76
2022/01/13 13:39:17;;;;;;;45.47;19.48;;;8.20;99.90;;;;;;5075214;28;20044;-77
2022/01/13 13:41:46;;;;;;;40.40;19.73;;;8.10;99.90;;;;;;5075384;28;20036;-76
2022/01/13 13:44:24;;;;;;;46.25;21.17;;;8.30;99.90;;;;;;5075263;28;20036;-76
2022/01/13 13:46:56;;;;;;;37.65;18.85;;;8.30;99.90;;;;;;5075202;28;20040;-76
2022/01/13 13:49:24;;;;;;;51.50;18.73;;;8.00;99.90;;;;;;5074778;28;20517;-76
2022/01/13 13:52:07;;;;;;;42.65;18.80;;;8.10;99.90;;;;;;5075069;28;20046;-76
2022/01/13 13:54:44;;;;;;;41.15;18.08;;;8.20;99.90;;;;;;5075368;28;20081;-76
2022/01/13 13:57:12;;;;;;;38.05;18.08;;;7.90;99.90;;;;;;5074945;28;20522;-76
2022/01/13 13:59:48;;;;;;;39.10;19.10;;;8.20;99.90;;;;;;5066759;28;20059;-76
2022/01/13 14:02:16;;;;;;;50.67;19.35;;;8.10;99.90;;;;;;5066350;28;20254;-76
2022/01/13 14:04:42;;;;;;;45.42;19.50;;;;;;;;;;5074865;28;20111;-76
2022/01/13 14:07:35;;;;;;;38.70;17.95;;;8.20;99.90;;;;;;5055907;28;20047;-76
2022/01/13 14:10:01;;;;;;;40.45;18.65;;;;;;;;;;5075045;28;20368;-75